6NA7 weather

Public forecast

Using degrees Fahrenheit for public forecast. Weather courtesy of forecast.io.

Closest aviation weather report (METAR) to Kersten Brothers Airport

Closest report is Minot Air Force Base, 25.6 nm (47.5 km) SW. Retrieved 2020/08/11 23:56 UTC (7 minutes ago):

KMIB 112356Z AUTO 13011KT 10SM CLR 28/11 A2982 RMK AO2 SLP101 T02780109 10284 20253 57009

Closest aviation forecast (TAF) to Kersten Brothers Airport

Forecast is more than 6 hours old.

Closest forecast is Minot Air Force Base, 25.6 nm (47.5 km) SW. Retrieved 2020/08/11 17:59 UTC (6 hours ago):

TAF KMIB 111700Z 1117/1223 12010KT 9999 FEW100 QNH2987INS BECMG 1201/1202 15009KT 9999 FEW100 QNH2980INS BECMG 1215/1216 15012G18KT 9999 FEW030 QNH2977INS TX28/1122Z TN17/1212Z